Time;durP1;ratioP1;P1;durP2;ratioP2;P2;SDS_P1;SDS_P2;PMS_P1;PMS_P2;Temp;Humidity;BMP_temperature;BMP_pressure;BME280_temperature;BME280_humidity;BME280_pressure;Samples;Min_cycle;Max_cycle;Signal;HPM_P1;HPM_P2
2024/04/14 00:00:17;;;;;;;20.65;9.48;;;11.40;99.90;;;10.86;100.00;102113.47;4487642;26;20000;-58
2024/04/14 00:02:17;;;;;;;18.42;9.00;;;11.40;99.90;;;10.88;100.00;102108.91;4487193;26;20004;-58
2024/04/14 00:04:18;;;;;;;15.77;9.65;;;11.40;99.90;;;10.91;100.00;102108.66;4471133;26;20365;-58
2024/04/14 00:06:22;;;;;;;18.40;9.60;;;11.50;99.90;;;10.95;100.00;102112.72;4457912;26;20020;-58
2024/04/14 00:08:23;;;;;;;21.88;9.95;;;11.50;99.90;;;10.98;100.00;102109.84;4457900;26;20004;-57
2024/04/14 00:10:23;;;;;;;16.40;9.48;;;11.60;99.90;;;11.05;100.00;102110.19;4458059;26;20036;-58
2024/04/14 00:12:24;;;;;;;18.67;9.45;;;11.60;99.90;;;11.09;100.00;102107.16;4457436;26;20002;-58
2024/04/14 00:14:26;;;;;;;16.13;9.70;;;11.60;99.90;;;11.13;100.00;102110.38;4457819;26;20004;-58
2024/04/14 00:16:26;;;;;;;15.57;9.60;;;11.70;99.90;;;11.15;100.00;102107.59;4457671;26;20012;-59
2024/04/14 00:18:27;;;;;;;17.50;9.82;;;11.70;99.90;;;11.16;100.00;102110.13;4457492;26;20012;-58
2024/04/14 00:20:28;;;;;;;19.77;8.25;;;11.70;99.90;;;11.24;100.00;102107.69;4457730;26;20102;-59
2024/04/14 00:22:29;;;;;;;15.73;9.73;;;11.80;99.90;;;11.31;100.00;102113.31;4457624;26;20005;-58
2024/04/14 00:24:30;;;;;;;18.25;9.70;;;11.90;99.90;;;11.31;100.00;102118.59;4457615;26;20012;-58
2024/04/14 00:26:32;;;;;;;21.23;11.23;;;11.90;99.90;;;11.25;100.00;102124.38;4459294;26;20000;-58
2024/04/14 00:28:33;;;;;;;20.15;9.18;;;11.90;99.90;;;11.29;100.00;102115.25;4475946;26;20013;-58
2024/04/14 00:30:33;;;;;;;18.30;10.13;;;11.90;99.90;;;11.30;100.00;102135.38;4462915;26;20012;-58
2024/04/14 00:32:34;;;;;;;20.33;11.48;;;11.90;99.90;;;11.30;100.00;102122.19;4460040;26;20032;-57
2024/04/14 00:34:35;;;;;;;21.38;12.40;;;11.90;99.90;;;11.25;100.00;102133.13;4460355;26;20036;-58
2024/04/14 00:36:36;;;;;;;20.63;12.57;;;11.90;99.90;;;11.21;100.00;102128.22;4460364;26;20000;-56
2024/04/14 00:38:38;;;;;;;17.30;11.30;;;11.90;99.90;;;11.19;100.00;102131.00;4460137;26;20008;-58
2024/04/14 00:40:38;;;;;;;15.85;10.65;;;11.80;99.90;;;11.21;100.00;102130.88;4460261;26;20077;-58
2024/04/14 00:42:39;;;;;;;21.63;12.88;;;11.80;99.90;;;11.21;100.00;102129.06;4460099;26;20008;-58
2024/04/14 00:44:41;;;;;;;17.52;12.60;;;11.80;99.90;;;11.17;100.00;102124.97;4460321;26;20459;-58
2024/04/14 00:46:42;;;;;;;18.25;12.10;;;11.80;99.90;;;11.18;100.00;102123.19;4460104;26;20012;-58
2024/04/14 00:48:43;;;;;;;18.73;12.10;;;11.80;99.90;;;11.18;100.00;102124.03;4458357;26;20351;-58
2024/04/14 00:50:46;;;;;;;21.30;13.48;;;11.80;99.90;;;11.14;100.00;102124.44;4460434;26;20477;-58
2024/04/14 00:52:48;;;;;;;18.60;12.17;;;11.80;99.90;;;11.11;100.00;102118.41;4460327;26;20442;-58
2024/04/14 00:54:49;;;;;;;25.98;13.57;;;11.80;99.90;;;11.08;100.00;102117.81;4467607;26;20458;-57
2024/04/14 00:56:50;;;;;;;20.48;12.63;;;11.80;99.90;;;11.10;100.00;102118.56;4487637;26;20010;-58
2024/04/14 00:58:51;;;;;;;21.55;12.48;;;11.70;99.90;;;11.07;100.00;102122.28;4458264;26;20000;-58
2024/04/14 01:00:52;;;;;;;19.35;12.50;;;11.70;99.90;;;11.09;100.00;102119.50;4459891;26;20004;-57
2024/04/14 01:02:55;;;;;;;22.15;13.23;;;11.70;99.90;;;11.05;100.00;102113.63;4459803;26;20016;-58
2024/04/14 01:04:56;;;;;;;20.83;12.02;;;11.70;99.90;;;11.06;100.00;102115.31;4475775;26;20475;-58
2024/04/14 01:06:58;;;;;;;24.35;14.02;;;11.70;99.90;;;11.05;100.00;102124.19;4459858;26;20078;-58
2024/04/14 01:08:59;;;;;;;19.17;12.25;;;11.70;99.90;;;11.06;100.00;102120.59;4458164;26;20011;-58
2024/04/14 01:10:59;;;;;;;20.65;12.40;;;11.70;99.90;;;11.09;100.00;102117.72;4469033;26;20003;-58
2024/04/14 01:13:00;;;;;;;20.40;11.77;;;11.70;99.90;;;11.09;100.00;102119.50;4459564;26;20004;-58
2024/04/14 01:15:02;;;;;;;23.98;12.43;;;11.70;99.90;;;11.09;100.00;102119.50;4459867;26;20015;-58
2024/04/14 01:17:03;;;;;;;20.80;11.60;;;11.70;99.90;;;11.08;100.00;102129.22;4459774;26;20317;-57
2024/04/14 01:19:04;;;;;;;21.42;11.60;;;11.70;99.90;;;11.10;100.00;102126.47;4459589;26;20054;-58
2024/04/14 01:21:08;;;;;;;18.45;10.80;;;11.70;99.90;;;11.09;100.00;102119.50;4459886;26;20074;-58
2024/04/14 01:23:08;;;;;;;23.42;11.05;;;11.70;99.90;;;11.02;100.00;102132.38;4459673;26;20015;-58
2024/04/14 01:25:09;;;;;;;16.35;10.27;;;11.70;99.90;;;11.06;100.00;102138.25;4459531;26;20004;-58
2024/04/14 01:27:10;;;;;;;14.80;9.48;;;11.70;99.90;;;11.05;100.00;102136.59;4459690;26;20000;-58
2024/04/14 01:29:12;;;;;;;19.23;10.45;;;11.70;99.90;;;11.01;100.00;102127.22;4459521;26;20406;-58
2024/04/14 01:31:12;;;;;;;14.32;9.15;;;11.70;99.90;;;11.01;100.00;102122.78;4459705;26;20004;-58
2024/04/14 01:33:15;;;;;;;17.33;9.10;;;11.60;99.90;;;11.04;100.00;102132.25;4459253;26;20036;-58
2024/04/14 01:35:16;;;;;;;18.15;9.00;;;11.60;99.90;;;11.02;100.00;102129.72;4459667;26;20004;-58
2024/04/14 01:37:17;;;;;;;14.07;8.30;;;11.60;99.90;;;10.99;100.00;102129.97;4459315;26;20016;-58
2024/04/14 01:39:19;;;;;;;13.55;8.80;;;11.60;99.90;;;10.96;100.00;102124.94;4468636;26;20027;-58
2024/04/14 01:41:20;;;;;;;13.63;7.72;;;11.60;99.90;;;10.99;100.00;102126.53;4470580;26;20449;-58
2024/04/14 01:43:21;;;;;;;12.27;8.73;;;11.60;99.90;;;10.93;100.00;102119.91;4459071;26;20015;-58
2024/04/14 01:45:22;;;;;;;18.98;9.30;;;11.60;99.90;;;10.95;100.00;102120.66;4459287;26;20011;-58
2024/04/14 01:47:22;;;;;;;17.20;9.23;;;11.60;99.90;;;10.93;100.00;102119.91;4459420;26;20001;-58
2024/04/14 01:49:23;;;;;;;16.50;8.95;;;11.60;99.90;;;10.88;100.00;102132.66;4459349;26;20044;-58
2024/04/14 01:51:24;;;;;;;18.42;10.27;;;11.50;99.90;;;10.84;100.00;102139.13;4459573;26;20364;-58
2024/04/14 01:53:25;;;;;;;18.17;10.02;;;11.50;99.90;;;10.80;100.00;102135.09;4465401;26;20416;-58
2024/04/14 01:55:26;;;;;;;15.52;9.40;;;11.50;99.90;;;10.85;100.00;102139.97;4468553;26;20037;-57
2024/04/14 01:57:26;;;;;;;17.92;10.52;;;11.50;99.90;;;10.81;100.00;102139.38;4459585;26;20000;-58
2024/04/14 01:59:27;;;;;;;13.77;9.80;;;11.50;99.90;;;10.80;100.00;102140.38;4482948;26;20012;-58
2024/04/14 02:01:28;;;;;;;18.23;9.55;;;11.40;99.90;;;10.81;100.00;102136.75;4488543;26;19999;-58
2024/04/14 02:03:29;;;;;;;14.23;9.23;;;11.40;99.90;;;10.79;100.00;102136.03;4484515;26;19999;-58
2024/04/14 02:05:30;;;;;;;12.93;9.07;;;11.40;99.90;;;10.75;100.00;102129.31;4459256;26;20000;-58
2024/04/14 02:07:30;;;;;;;12.43;9.70;;;11.40;99.90;;;10.75;100.00;102134.59;4459140;26;20000;-58
2024/04/14 02:09:31;;;;;;;13.30;9.77;;;11.40;99.90;;;10.74;100.00;102137.38;4457600;26;20511;-58
2024/04/14 02:11:32;;;;;;;15.38;10.32;;;11.40;99.90;;;10.72;100.00;102137.47;4459166;26;20446;-58
2024/04/14 02:13:33;;;;;;;14.23;9.00;;;11.30;99.90;;;10.74;100.00;102140.84;4469377;26;20363;-58
2024/04/14 02:15:34;;;;;;;14.65;9.88;;;11.40;99.90;;;10.72;100.00;102142.75;4459242;26;20359;-58
2024/04/14 02:17:34;;;;;;;16.98;9.85;;;11.40;99.90;;;10.74;100.00;102135.56;4458794;26;20004;-58
2024/04/14 02:19:35;;;;;;;12.13;10.10;;;11.30;99.90;;;10.71;100.00;102146.38;4458919;26;20409;-58
2024/04/14 02:21:36;;;;;;;13.23;10.15;;;11.40;99.90;;;10.71;100.00;102132.34;4459223;26;20014;-57
2024/04/14 02:23:38;;;;;;;14.95;8.52;;;11.30;99.90;;;10.73;100.00;102130.41;4459123;26;20000;-58
2024/04/14 02:25:39;;;;;;;14.00;9.35;;;11.30;99.90;;;10.73;100.00;102144.44;4459015;26;20008;-58
2024/04/14 02:27:40;;;;;;;14.30;9.80;;;11.40;99.90;;;10.71;100.00;102143.75;4458812;26;20075;-58
2024/04/14 02:29:41;;;;;;;14.38;9.88;;;11.40;99.90;;;10.69;100.00;102145.66;4458813;26;20076;-58
2024/04/14 02:31:41;;;;;;;21.42;10.82;;;11.30;99.90;;;10.69;100.00;102150.09;4458987;26;20016;-58
2024/04/14 02:33:42;;;;;;;17.08;10.55;;;11.30;99.90;;;10.65;100.00;102153.94;4458722;26;20320;-57
2024/04/14 02:35:58;;;;;;;22.05;9.40;;;11.30;99.90;;;10.64;100.00;102149.59;4458851;26;20004;-58
2024/04/14 02:37:59;;;;;;;15.27;10.68;;;11.30;99.90;;;10.59;100.00;102151.78;4459008;26;20000;-58
2024/04/14 02:40:00;;;;;;;19.33;10.57;;;11.20;99.90;;;10.62;100.00;102146.25;4458972;26;20041;-59
2024/04/14 02:42:01;;;;;;;20.52;11.02;;;11.20;99.90;;;10.59;100.00;102149.16;4458961;26;20004;-58
2024/04/14 02:44:04;;;;;;;15.57;10.90;;;11.20;99.90;;;10.61;100.00;102148.06;4458743;26;20016;-58
2024/04/14 02:46:05;;;;;;;14.30;9.57;;;11.20;99.90;;;10.61;100.00;102150.69;4458741;26;20000;-58
2024/04/14 02:48:06;;;;;;;14.57;8.90;;;11.20;99.90;;;10.61;100.00;102147.22;4457617;26;20000;-58
2024/04/14 02:50:07;;;;;;;14.32;9.23;;;11.20;99.90;;;10.58;100.00;102145.66;4458721;26;20004;-58
2024/04/14 02:52:08;;;;;;;19.83;9.95;;;11.20;99.90;;;10.60;100.00;102142.91;4458487;26;20000;-58
2024/04/14 02:54:09;;;;;;;12.63;8.77;;;11.20;99.90;;;10.60;100.00;102141.13;4468209;26;20036;-58
2024/04/14 02:56:10;;;;;;;11.52;7.60;;;11.20;99.90;;;10.63;100.00;102137.41;4467167;26;20004;-58
2024/04/14 02:58:11;;;;;;;14.02;9.27;;;11.20;99.90;;;10.63;100.00;102145.31;4463014;26;20076;-58
2024/04/14 03:00:14;;;;;;;12.38;8.05;;;11.20;99.90;;;10.63;100.00;102140.88;4487897;26;20039;-58
2024/04/14 03:02:14;;;;;;;9.82;7.00;;;11.20;99.90;;;10.63;100.00;102129.47;4486005;26;20341;-58
2024/04/14 03:04:15;;;;;;;11.40;7.78;;;11.20;99.90;;;10.67;100.00;102134.38;4472747;26;20017;-58
2024/04/14 03:06:17;;;;;;;12.82;8.15;;;11.30;99.90;;;10.63;100.00;102138.25;4458423;26;20029;-58
2024/04/14 03:08:18;;;;;;;17.10;8.73;;;11.30;99.90;;;10.63;100.00;102138.25;4458574;26;20007;-58
2024/04/14 03:10:20;;;;;;;14.93;8.48;;;11.30;99.90;;;10.63;100.00;102138.25;4458638;26;20044;-58
2024/04/14 03:12:21;;;;;;;12.05;7.40;;;11.20;99.90;;;10.65;100.00;102136.31;4462866;26;20007;-58
2024/04/14 03:14:21;;;;;;;12.85;8.32;;;11.20;99.90;;;10.64;100.00;102128.50;4458446;26;20339;-58
2024/04/14 03:16:22;;;;;;;11.95;7.28;;;11.30;99.90;;;10.65;100.00;102131.03;4458602;26;20004;-59
2024/04/14 03:18:23;;;;;;;9.23;6.65;;;11.30;99.90;;;10.69;100.00;102140.41;4458312;26;20036;-58
2024/04/14 03:20:24;;;;;;;13.48;7.28;;;11.30;99.90;;;10.71;100.00;102137.63;4458514;26;20011;-58
2024/04/14 03:22:25;;;;;;;10.95;7.43;;;11.30;99.90;;;10.70;100.00;102136.78;4469381;26;20469;-58
2024/04/14 03:24:26;;;;;;;9.82;6.38;;;11.30;99.90;;;10.70;100.00;102130.66;4458585;26;20447;-58
2024/04/14 03:26:27;;;;;;;13.55;7.28;;;11.30;99.90;;;10.74;100.00;102129.44;4458383;26;20004;-58
2024/04/14 03:28:28;;;;;;;8.23;5.68;;;11.30;99.90;;;10.76;100.00;102138.91;4458388;26;20364;-58
2024/04/14 03:30:30;;;;;;;9.48;5.32;;;11.30;99.90;;;10.80;100.00;102132.44;4458368;26;20408;-58
2024/04/14 03:32:31;;;;;;;10.90;6.63;;;11.40;99.90;;;10.78;100.00;102138.81;4458160;26;20010;-58
2024/04/14 03:34:32;;;;;;;12.35;6.20;;;11.40;99.90;;;10.80;100.00;102129.81;4458408;26;20000;-58
2024/04/14 03:36:32;;;;;;;9.77;6.10;;;11.40;99.90;;;10.80;100.00;102129.81;4458178;26;20040;-58
2024/04/14 03:38:34;;;;;;;7.80;4.63;;;11.40;99.90;;;10.84;100.00;102131.22;4458289;26;20004;-58
2024/04/14 03:40:34;;;;;;;8.32;6.13;;;11.40;99.90;;;10.85;100.00;102124.13;4458225;26;20015;-58
2024/04/14 03:42:35;;;;;;;7.15;5.22;;;11.40;99.90;;;10.88;100.00;102131.81;4457872;26;20008;-58
2024/04/14 03:44:36;;;;;;;10.07;5.38;;;11.50;99.90;;;10.84;100.00;102119.84;4456508;26;20011;-58
2024/04/14 03:46:37;;;;;;;10.52;4.90;;;11.50;99.90;;;10.84;100.00;102135.69;4458270;26;20028;-58
2024/04/14 03:48:38;;;;;;;11.60;5.15;;;11.50;99.90;;;10.83;100.00;102132.19;4457866;26;20451;-58
2024/04/14 03:50:39;;;;;;;10.40;4.88;;;11.50;99.90;;;10.83;100.00;102124.28;4458131;26;20000;-58
2024/04/14 03:52:39;;;;;;;9.77;5.60;;;11.50;99.90;;;10.85;100.00;102130.25;4458105;26;20004;-57
2024/04/14 03:54:40;;;;;;;9.70;4.65;;;11.50;99.90;;;10.85;100.00;102132.91;4466773;26;20035;-58
2024/04/14 03:56:41;;;;;;;8.20;4.55;;;11.50;99.90;;;10.86;100.00;102134.59;4457798;26;20000;-58
2024/04/14 03:58:42;;;;;;;7.38;4.18;;;11.50;99.90;;;10.89;100.00;102144.91;4470088;26;20000;-58
2024/04/14 04:00:43;;;;;;;8.38;4.63;;;11.50;99.90;;;10.91;100.00;102142.97;4486701;26;20032;-58
2024/04/14 04:02:44;;;;;;;8.85;4.93;;;11.50;99.90;;;10.88;100.00;102137.94;4471657;26;20099;-58
2024/04/14 04:04:45;;;;;;;8.07;5.05;;;11.50;99.90;;;10.89;100.00;102138.78;4474526;26;20004;-58
2024/04/14 04:06:45;;;;;;;8.60;4.20;;;11.50;99.90;;;10.90;100.00;102145.75;4457706;26;20032;-58
2024/04/14 04:08:47;;;;;;;8.10;4.38;;;11.50;99.90;;;10.90;100.00;102145.75;4457698;26;20005;-58
2024/04/14 04:11:02;;;;;;;8.20;3.60;;;11.50;99.90;;;10.95;100.00;102148.84;4457778;26;20420;-58
2024/04/14 04:13:03;;;;;;;10.30;4.30;;;11.50;99.90;;;10.95;100.00;102152.31;4466642;26;20000;-58
2024/04/14 04:15:04;;;;;;;11.05;4.25;;;11.50;99.90;;;10.96;100.00;102153.97;4487238;26;20011;-58
2024/04/14 04:17:05;;;;;;;5.57;4.03;;;11.50;99.90;;;10.93;100.00;102148.94;4486960;26;20032;-58
2024/04/14 04:19:06;;;;;;;8.30;4.28;;;11.50;99.90;;;10.95;100.00;102144.41;4487276;26;20326;-57
2024/04/14 04:21:07;;;;;;;7.32;4.20;;;11.50;99.90;;;10.93;100.00;102146.31;4487030;26;20032;-58
2024/04/14 04:23:07;;;;;;;7.93;4.30;;;11.60;99.90;;;10.96;100.00;102161.09;4487111;26;20002;-58
2024/04/14 04:25:08;;;;;;;5.50;3.13;;;11.60;99.90;;;10.97;100.00;102160.09;4486927;26;20018;-58
2024/04/14 04:27:09;;;;;;;5.25;3.28;;;11.60;99.90;;;11.01;100.00;102159.75;4486999;26;20027;-58
2024/04/14 04:29:10;;;;;;;7.05;3.45;;;11.60;99.90;;;11.04;100.00;102163.94;4465910;26;20016;-58
2024/04/14 04:31:12;;;;;;;9.00;3.38;;;11.60;99.90;;;11.04;100.00;102159.50;4457671;26;20000;-58
2024/04/14 04:33:13;;;;;;;6.50;3.25;;;11.60;99.90;;;11.05;100.00;102165.63;4457197;26;20060;-57
2024/04/14 04:35:14;;;;;;;5.45;3.05;;;11.60;99.90;;;11.05;100.00;102168.28;4457760;26;20050;-58
2024/04/14 04:37:15;;;;;;;8.30;3.55;;;11.60;99.90;;;11.06;100.00;102162.00;4457413;26;20000;-58
2024/04/14 04:39:16;;;;;;;4.93;3.75;;;11.60;99.90;;;11.03;100.00;102160.47;4457261;26;20044;-58
2024/04/14 04:41:17;;;;;;;5.88;3.95;;;11.70;99.90;;;11.03;100.00;102156.97;4472461;26;20435;-58
2024/04/14 04:43:23;;;;;;;6.75;3.53;;;11.60;99.90;;;11.03;100.00;102165.75;4462167;26;20044;-58
2024/04/14 04:45:24;;;;;;;5.38;2.85;;;11.60;99.90;;;11.00;100.00;102155.44;4457478;26;20016;-58
2024/04/14 04:47:25;;;;;;;8.02;3.78;;;11.60;99.90;;;11.00;100.00;102159.88;4457166;26;20331;-59
2024/04/14 04:49:26;;;;;;;6.63;3.20;;;11.60;99.90;;;10.99;100.00;102158.19;4457374;26;20348;-58
2024/04/14 04:51:30;;;;;;;4.65;3.17;;;11.60;99.90;;;10.99;100.00;102153.75;4472290;26;20368;-58
2024/04/14 04:53:31;;;;;;;;;;;11.60;99.90;;;10.95;100.00;102151.47;4457820;26;20359;-58
2024/04/14 04:55:32;;;;;;;5.32;3.33;;;11.60;99.90;;;10.97;100.00;102146.91;4464193;26;19925;-58
2024/04/14 04:57:32;;;;;;;8.13;3.10;;;11.60;99.90;;;10.94;100.00;102150.63;4456973;26;20351;-58
2024/04/14 04:59:33;;;;;;;4.28;2.85;;;11.60;99.90;;;10.92;100.00;102149.94;4482258;26;20000;-58
2024/04/14 05:01:34;;;;;;;4.93;2.90;;;11.60;99.90;;;10.91;100.00;102153.53;4467615;26;20000;-58
2024/04/14 05:03:35;;;;;;;6.00;3.05;;;11.50;99.90;;;10.88;100.00;102147.66;4461983;26;20028;-58
2024/04/14 05:05:36;;;;;;;5.40;2.42;;;11.50;99.90;;;10.89;100.00;102149.34;4478940;26;20014;-59
2024/04/14 05:07:37;;;;;;;6.30;2.97;;;11.50;99.90;;;10.86;100.00;102150.44;4486401;26;19996;-57
2024/04/14 05:09:37;;;;;;;5.13;2.88;;;11.50;99.90;;;10.85;100.00;102150.53;4486084;26;20000;-58
2024/04/14 05:11:38;;;;;;;5.38;3.33;;;11.50;99.90;;;10.81;100.00;102154.41;4486786;26;20044;-58
2024/04/14 05:13:39;;;;;;;4.63;2.47;;;11.50;99.90;;;10.76;100.00;102153.91;4472531;26;20012;-59
2024/04/14 05:15:42;;;;;;;6.68;2.83;;;11.40;99.90;;;10.76;100.00;102148.63;4457239;26;20782;-59
2024/04/14 05:17:42;;;;;;;4.68;2.83;;;11.40;99.90;;;10.68;100.00;102158.97;4457514;26;20000;-58
2024/04/14 05:19:43;;;;;;;4.47;2.83;;;11.40;99.90;;;10.73;100.00;102156.78;4460044;26;20079;-59
2024/04/14 05:21:45;;;;;;;4.40;2.92;;;11.40;99.90;;;10.71;100.00;102159.56;4458856;26;20040;-58
2024/04/14 05:23:46;;;;;;;5.32;2.80;;;11.40;99.90;;;10.59;100.00;102152.63;4465564;26;20332;-58
2024/04/14 05:25:50;;;;;;;7.07;3.20;;;11.40;99.90;;;10.67;100.00;102152.00;4481337;26;20076;-58
2024/04/14 05:27:51;;;;;;;5.05;2.60;;;11.30;99.90;;;10.63;100.00;102148.81;4459863;26;20015;-58
2024/04/14 05:29:52;;;;;;;6.82;2.75;;;11.30;99.90;;;10.69;100.00;102164.16;4459588;26;20411;-58
2024/04/14 05:31:52;;;;;;;5.70;3.10;;;11.30;99.90;;;10.71;100.00;102164.84;4459770;26;20443;-58
2024/04/14 05:33:56;;;;;;;6.47;3.10;;;11.30;99.90;;;10.74;100.00;102172.53;4461103;26;20428;-58
2024/04/14 05:35:58;;;;;;;4.25;2.63;;;11.30;99.90;;;10.74;100.00;102169.88;4477991;26;20000;-58
2024/04/14 05:37:59;;;;;;;4.53;2.30;;;11.40;99.90;;;10.76;100.00;102169.75;4459576;26;20036;-58
2024/04/14 05:40:00;;;;;;;6.10;2.88;;;11.40;99.90;;;10.76;100.00;102173.22;4459787;26;20000;-58
2024/04/14 05:42:01;;;;;;;5.38;2.42;;;11.40;99.90;;;10.80;100.00;102174.69;4459640;26;20012;-58
2024/04/14 05:44:02;;;;;;;7.55;2.33;;;11.40;99.90;;;10.81;100.00;102171.06;4459458;26;20004;-58
2024/04/14 05:46:03;;;;;;;5.15;2.63;;;11.40;99.90;;;10.82;100.00;102178.03;4459558;26;20005;-59
2024/04/14 05:48:04;;;;;;;4.00;2.28;;;11.40;99.90;;;10.83;100.00;102170.94;4462876;26;20073;-58
2024/04/14 05:50:05;;;;;;;3.78;2.20;;;11.40;99.90;;;10.86;100.00;102179.47;4459364;26;20004;-59
2024/04/14 05:52:06;;;;;;;3.83;1.90;;;11.40;99.90;;;10.85;100.00;102169.84;4459373;26;20090;-59
2024/04/14 05:54:07;;;;;;;4.55;1.90;;;11.50;99.90;;;10.88;100.00;102179.31;4460113;26;20004;-58
2024/04/14 05:56:07;;;;;;;5.28;1.70;;;11.50;99.90;;;10.87;100.00;102175.03;4467754;26;20541;-58
2024/04/14 05:58:08;;;;;;;3.88;1.52;;;11.50;99.90;;;10.91;100.00;102176.44;4482440;26;20429;-58
2024/04/14 06:00:10;;;;;;;4.75;1.63;;;11.50;99.90;;;10.90;100.00;102172.97;4459222;26;20004;-59
2024/04/14 06:02:11;;;;;;;5.32;1.48;;;11.50;99.90;;;10.94;100.00;102179.69;4459367;26;20011;-58
2024/04/14 06:04:12;;;;;;;3.13;1.27;;;11.50;99.90;;;10.92;100.00;102170.22;4473300;26;20018;-58
2024/04/14 06:06:13;;;;;;;5.25;1.75;;;11.50;99.90;;;10.99;100.00;102172.22;4460803;26;20012;-58
2024/04/14 06:08:14;;;;;;;3.15;1.30;;;11.50;99.90;;;11.01;100.00;102180.88;4477440;26;20000;-59
2024/04/14 06:10:15;;;;;;;3.38;1.23;;;11.60;99.90;;;11.02;100.00;102177.25;4459133;26;20027;-58
2024/04/14 06:12:15;;;;;;;6.45;2.05;;;11.60;99.90;;;10.96;100.00;102171.66;4459199;26;20004;-58
2024/04/14 06:14:16;;;;;;;2.90;1.55;;;11.60;99.90;;;11.01;100.00;102175.59;4458787;26;20059;-58
2024/04/14 06:16:17;;;;;;;3.78;2.28;;;11.60;99.90;;;11.01;100.00;102178.25;4459018;26;20538;-58
2024/04/14 06:18:18;;;;;;;8.52;2.78;;;11.60;99.90;;;10.93;100.00;102183.28;4472794;26;20599;-58
2024/04/14 06:20:19;;;;;;;5.07;1.42;;;11.60;99.90;;;10.99;100.00;102185.41;4459229;26;20447;-58
2024/04/14 06:22:19;;;;;;;3.50;1.85;;;11.60;99.90;;;10.97;100.00;102190.00;4458972;26;20004;-58
2024/04/14 06:24:20;;;;;;;2.33;0.93;;;11.60;99.90;;;10.98;100.00;102186.41;4457639;26;20036;-58
2024/04/14 06:26:21;;;;;;;4.70;1.58;;;11.60;99.90;;;11.00;100.00;102188.91;4459136;26;20019;-58
2024/04/14 06:28:22;;;;;;;4.35;1.88;;;11.60;99.90;;;11.04;100.00;102185.91;4468553;26;20000;-58
2024/04/14 06:30:23;;;;;;;5.55;1.42;;;11.60;99.90;;;11.01;100.00;102183.53;4458888;26;20036;-59
2024/04/14 06:32:24;;;;;;;5.80;1.80;;;11.60;99.90;;;11.04;100.00;102182.44;4458544;26;20000;-58
2024/04/14 06:34:25;;;;;;;8.70;2.80;;;11.70;99.90;;;11.10;100.00;102190.69;4463239;26;20019;-59
2024/04/14 06:36:26;;;;;;;5.95;1.83;;;11.70;99.90;;;11.10;100.00;102188.06;4459766;26;20048;-58
2024/04/14 06:38:27;;;;;;;5.18;1.90;;;11.70;99.90;;;11.06;100.00;102191.91;4463082;26;20018;-59
2024/04/14 06:40:28;;;;;;;7.22;1.98;;;11.70;99.90;;;11.02;100.00;102187.81;4458760;26;20010;-58
2024/04/14 06:42:29;;;;;;;5.88;1.98;;;11.70;99.90;;;11.08;100.00;102184.69;4458823;26;20357;-59
2024/04/14 06:44:29;;;;;;;4.47;1.88;;;11.70;99.90;;;11.12;100.00;102187.91;4458991;26;20328;-58
2024/04/14 06:46:30;;;;;;;4.22;1.25;;;11.70;99.90;;;10.95;100.00;102181.38;4459878;26;20007;-58
2024/04/14 06:48:32;;;;;;;6.05;2.13;;;11.70;99.90;;;10.96;100.00;102183.03;4458570;26;20015;-58
2024/04/14 06:50:33;;;;;;;5.32;1.58;;;11.70;99.90;;;10.99;100.00;102181.97;4459048;26;20439;-59
2024/04/14 06:52:34;;;;;;;4.88;1.33;;;11.60;99.90;;;11.09;100.00;102189.00;4459068;26;20431;-59
2024/04/14 06:54:35;;;;;;;5.15;1.45;;;11.70;99.90;;;11.20;100.00;102195.25;4466360;26;20018;-58
2024/04/14 06:56:36;;;;;;;4.47;1.35;;;11.70;99.90;;;11.23;100.00;102192.34;4461251;26;20036;-59
2024/04/14 06:58:36;;;;;;;9.43;1.40;;;11.70;99.90;;;11.20;100.00;102195.25;4477150;26;20340;-59
2024/04/14 07:00:38;;;;;;;8.00;1.55;;;11.80;99.90;;;11.27;100.00;102193.75;4458796;26;20036;-59
2024/04/14 07:02:39;;;;;;;5.97;1.70;;;11.80;99.90;;;11.35;100.00;102183.41;4458399;26;20011;-59
2024/04/14 07:04:40;;;;;;;2.45;1.17;;;11.90;99.90;;;11.41;100.00;102182.91;4475687;26;20007;-58
2024/04/14 07:06:41;;;;;;;4.30;1.20;;;11.90;99.90;;;11.53;100.00;102180.06;4462237;26;20011;-59
2024/04/14 07:08:42;;;;;;;3.38;1.05;;;12.00;99.90;;;11.64;100.00;102187.13;4472890;26;20004;-58
2024/04/14 07:10:42;;;;;;;7.18;2.53;;;12.10;99.90;;;11.76;100.00;102180.00;4458614;26;20014;-58
2024/04/14 07:12:43;;;;;;;2.25;1.30;;;12.20;99.90;;;11.82;100.00;102188.28;4458699;26;20044;-58
2024/04/14 07:14:44;;;;;;;4.13;2.75;;;12.40;99.90;;;11.79;100.00;102182.41;4458508;26;20528;-58
2024/04/14 07:16:45;;;;;;;5.43;1.50;;;12.40;99.90;;;11.77;100.00;102190.44;4463059;26;20467;-58
2024/04/14 07:18:46;;;;;;;5.63;2.08;;;12.40;99.90;;;11.68;100.00;102195.66;4467511;26;20076;-58
2024/04/14 07:20:47;;;;;;;4.10;1.48;;;12.40;99.90;;;11.66;100.00;102183.38;4458320;26;20004;-58
2024/04/14 07:22:48;;;;;;;6.43;1.77;;;12.40;99.90;;;11.78;100.00;102186.00;4470546;26;20440;-58
2024/04/14 07:24:49;;;;;;;6.63;1.77;;;12.40;99.90;;;11.81;100.00;102186.59;4458336;26;20037;-58
2024/04/14 07:26:50;;;;;;;3.75;1.10;;;12.40;99.90;;;11.91;100.00;102189.31;4463580;26;20003;-59
2024/04/14 07:28:51;;;;;;;6.07;2.00;;;12.50;99.90;;;11.93;100.00;102180.25;4462775;26;20168;-58
2024/04/14 07:30:52;;;;;;;3.25;1.02;;;12.50;99.90;;;12.01;100.00;102187.53;4469464;26;20032;-58
2024/04/14 07:32:52;;;;;;;2.50;0.93;;;12.60;99.90;;;11.99;100.00;102190.31;4487481;26;20363;-58
2024/04/14 07:34:53;;;;;;;5.72;2.08;;;12.60;99.90;;;11.93;100.00;102190.84;4487302;26;20018;-58
2024/04/14 07:36:56;;;;;;;4.82;1.48;;;12.60;99.90;;;12.04;100.00;102189.91;4481325;26;20437;-58
2024/04/14 07:38:57;;;;;;;3.22;1.60;;;12.70;99.90;;;12.09;100.00;102193.03;4458270;26;20015;-58
2024/04/14 07:40:58;;;;;;;2.38;1.00;;;12.70;99.90;;;12.15;100.00;102190.72;4458088;26;20335;-59
2024/04/14 07:42:59;;;;;;;8.60;1.88;;;12.70;99.90;;;12.20;100.00;102188.50;4457812;26;20000;-58
2024/04/14 07:45:00;;;;;;;4.38;1.40;;;12.80;99.90;;;12.23;100.00;102183.91;4458293;26;20004;-58
2024/04/14 07:47:01;;;;;;;3.05;1.30;;;12.80;99.90;;;12.35;100.00;102177.56;4459840;26;20010;-58
2024/04/14 07:49:02;;;;;;;2.38;1.50;;;12.90;99.90;;;12.46;100.00;102172.16;4458254;26;20073;-59
2024/04/14 07:51:04;;;;;;;5.30;1.85;;;13.00;99.90;;;12.65;100.00;102169.59;4458138;26;20432;-58
2024/04/14 07:53:05;;;;;;;2.33;1.00;;;13.10;99.90;;;12.84;100.00;102172.31;4458154;26;20000;-59
2024/04/14 07:55:06;;;;;;;4.70;1.90;;;13.30;99.90;;;12.95;100.00;102174.84;4467598;26;20364;-58
2024/04/14 07:57:09;;;;;;;3.38;1.38;;;13.40;99.90;;;13.03;100.00;102177.63;4466672;26;20037;-58
2024/04/14 07:59:10;;;;;;;8.73;1.60;;;13.50;99.90;;;13.22;100.00;102183.00;4468290;26;20004;-59
2024/04/14 08:01:10;;;;;;;4.30;1.05;;;13.70;99.90;;;13.39;100.00;102183.28;4457834;26;20098;-58
2024/04/14 08:03:11;;;;;;;2.78;0.93;;;13.90;99.90;;;13.39;100.00;102177.97;4457640;26;20036;-58
2024/04/14 08:05:12;;;;;;;4.10;1.25;;;13.90;99.90;;;13.36;100.00;102175.59;4473299;26;20004;-58
2024/04/14 08:07:13;;;;;;;7.47;1.50;;;14.00;99.90;;;13.49;100.00;102176.19;4467647;26;20028;-59
2024/04/14 08:09:14;;;;;;;2.58;1.13;;;14.00;99.90;;;13.63;100.00;102181.03;4462695;26;20041;-58
2024/04/14 08:11:15;;;;;;;3.53;1.20;;;14.10;99.90;;;13.63;100.00;102186.34;4457729;26;20012;-59
2024/04/14 08:13:15;;;;;;;8.32;2.10;;;14.20;99.90;;;13.56;100.00;102185.25;4457610;26;20016;-58
2024/04/14 08:15:16;;;;;;;3.97;1.30;;;14.20;99.90;;;13.62;100.00;102182.03;4457890;26;20024;-58